createdAt,value
2018-10-17T00:00:20.026Z,34.10
2018-10-17T00:02:22.240Z,32.80
2018-10-17T00:04:24.495Z,30.57
2018-10-17T00:06:26.766Z,37.17
2018-10-17T00:08:28.961Z,36.47
2018-10-17T00:10:31.146Z,38.43
2018-10-17T00:12:33.555Z,37.27
2018-10-17T00:14:35.717Z,39.00
2018-10-17T00:16:37.883Z,36.97
2018-10-17T00:18:40.310Z,38.93
2018-10-17T00:20:43.063Z,39.67
2018-10-17T00:22:45.271Z,41.10
2018-10-17T00:24:48.142Z,42.10
2018-10-17T00:26:50.362Z,38.57
2018-10-17T00:28:52.652Z,37.70
2018-10-17T00:30:55.040Z,38.47
2018-10-17T00:32:57.208Z,39.50
2018-10-17T00:34:59.435Z,38.40
2018-10-17T00:37:01.606Z,38.20
2018-10-17T00:39:05.846Z,37.60
2018-10-17T00:41:08.122Z,35.30
2018-10-17T00:43:10.391Z,36.40
2018-10-17T00:45:12.560Z,36.30
2018-10-17T00:47:14.902Z,39.10
2018-10-17T00:49:17.105Z,36.50
2018-10-17T00:51:19.239Z,36.20
2018-10-17T00:53:21.513Z,35.60
2018-10-17T00:55:23.737Z,34.60
2018-10-17T00:57:26.094Z,33.83
2018-10-17T00:59:28.341Z,34.37
2018-10-17T01:01:30.699Z,34.10
2018-10-17T01:03:33.076Z,35.63
2018-10-17T01:05:35.274Z,34.07
2018-10-17T01:07:37.493Z,36.87
2018-10-17T01:09:39.676Z,36.23
2018-10-17T01:11:42.068Z,37.03
2018-10-17T01:13:44.268Z,36.63
2018-10-17T01:15:46.436Z,34.20
2018-10-17T01:17:48.614Z,35.87
2018-10-17T01:19:50.822Z,37.57
2018-10-17T01:21:52.995Z,37.30
2018-10-17T01:23:55.154Z,36.13
2018-10-17T01:25:57.320Z,37.77
2018-10-17T01:27:59.475Z,36.47
2018-10-17T01:30:01.672Z,36.60
2018-10-17T01:32:04.423Z,37.80
2018-10-17T01:34:06.594Z,37.33
2018-10-17T01:36:08.782Z,38.40
2018-10-17T01:38:10.981Z,35.07
2018-10-17T01:40:13.338Z,36.17
2018-10-17T01:42:15.502Z,37.17
2018-10-17T01:44:17.699Z,36.10
2018-10-17T01:46:19.892Z,39.13
2018-10-17T01:48:22.075Z,37.40
2018-10-17T01:50:24.353Z,35.47
2018-10-17T01:52:26.845Z,36.40
2018-10-17T01:54:29.078Z,36.20
2018-10-17T01:56:31.270Z,39.00
2018-10-17T01:58:33.466Z,37.70
2018-10-17T02:00:35.678Z,36.90
2018-10-17T02:02:37.843Z,34.80
2018-10-17T02:04:40.021Z,37.07
2018-10-17T02:06:42.434Z,37.27
2018-10-17T02:08:44.626Z,38.00
2018-10-17T02:10:46.834Z,38.20
2018-10-17T02:12:49.022Z,39.23
2018-10-17T02:14:51.195Z,37.97
2018-10-17T02:16:53.398Z,35.87
2018-10-17T02:18:55.861Z,38.60
2018-10-17T02:20:58.093Z,38.03
2018-10-17T02:23:00.355Z,40.07
2018-10-17T02:25:02.639Z,39.33
2018-10-17T02:27:04.768Z,37.90
2018-10-17T02:29:07.035Z,37.83
2018-10-17T02:31:09.218Z,41.53
2018-10-17T02:33:11.404Z,40.70
2018-10-17T02:35:14.693Z,39.53
2018-10-17T02:37:17.751Z,39.50
2018-10-17T02:39:19.857Z,38.67
2018-10-17T02:41:25.906Z,38.90
2018-10-17T02:43:28.082Z,39.37
2018-10-17T02:45:30.344Z,40.90
2018-10-17T02:47:32.476Z,40.90
2018-10-17T02:49:34.743Z,42.30
2018-10-17T02:51:36.974Z,40.43
2018-10-17T02:53:39.179Z,37.20
2018-10-17T02:55:41.398Z,39.50
2018-10-17T02:57:43.603Z,39.40
2018-10-17T02:59:45.798Z,39.50
2018-10-17T03:01:48.054Z,38.23
2018-10-17T03:03:50.229Z,36.10
2018-10-17T03:05:52.415Z,38.40
2018-10-17T03:07:55.018Z,36.93
2018-10-17T03:09:57.214Z,35.40
2018-10-17T03:11:59.423Z,37.30
2018-10-17T03:14:01.719Z,39.07
2018-10-17T03:16:03.960Z,38.77
2018-10-17T03:18:06.182Z,37.53
2018-10-17T03:20:09.076Z,35.70
2018-10-17T03:22:11.247Z,36.63
2018-10-17T03:24:21.541Z,36.97
2018-10-17T03:26:26.855Z,36.00
2018-10-17T03:28:40.295Z,35.60
2018-10-17T03:30:54.304Z,37.73
2018-10-17T03:33:10.762Z,37.00
2018-10-17T03:35:20.557Z,35.30
2018-10-17T03:37:22.794Z,34.47
2018-10-17T03:39:25.284Z,36.70
2018-10-17T03:41:27.536Z,38.60
2018-10-17T03:43:29.783Z,35.77
2018-10-17T03:45:32.047Z,37.23
2018-10-17T03:47:34.222Z,35.80
2018-10-17T03:49:36.537Z,35.67
2018-10-17T03:51:38.778Z,36.23
2018-10-17T03:53:41.180Z,36.20
2018-10-17T03:55:43.449Z,35.73
2018-10-17T03:57:45.683Z,35.43
2018-10-17T03:59:48.215Z,38.83
2018-10-17T04:01:50.355Z,35.90
2018-10-17T04:03:52.587Z,36.60
2018-10-17T04:05:55.013Z,32.57
2018-10-17T04:07:58.362Z,36.57
2018-10-17T04:10:02.160Z,35.17
2018-10-17T04:12:04.513Z,34.60
2018-10-17T04:14:07.056Z,33.27
2018-10-17T04:16:09.247Z,34.80
2018-10-17T04:18:11.902Z,35.03
2018-10-17T04:20:14.442Z,34.83
2018-10-17T04:22:16.642Z,35.50
2018-10-17T04:24:18.871Z,35.40
2018-10-17T04:26:21.334Z,35.50
2018-10-17T04:28:23.574Z,36.50
2018-10-17T04:30:25.798Z,33.83
2018-10-17T04:32:28.358Z,34.73
2018-10-17T04:34:30.724Z,35.40
2018-10-17T04:36:35.067Z,35.00
2018-10-17T04:38:37.384Z,37.20
2018-10-17T04:40:39.742Z,34.30
2018-10-17T04:42:42.108Z,34.77
2018-10-17T04:44:44.670Z,34.20
2018-10-17T04:46:46.976Z,36.27
2018-10-17T04:48:49.243Z,34.50
2018-10-17T04:50:52.012Z,36.43
2018-10-17T04:52:54.453Z,35.37
2018-10-17T04:54:56.830Z,35.27
2018-10-17T04:56:59.357Z,33.70
2018-10-17T04:59:02.240Z,35.83
2018-10-17T05:01:05.053Z,34.33
2018-10-17T05:03:07.255Z,34.80
2018-10-17T05:07:30.551Z,35.10
2018-10-17T05:09:32.827Z,33.57
2018-10-17T05:11:35.019Z,34.07
2018-10-17T05:13:38.052Z,32.83
2018-10-17T05:15:40.317Z,32.33
2018-10-17T05:17:42.649Z,36.20
2018-10-17T05:19:44.856Z,34.50
2018-10-17T05:21:47.460Z,33.47
2018-10-17T05:23:49.743Z,33.40
2018-10-17T05:25:51.938Z,34.90
2018-10-17T05:27:56.913Z,32.47
2018-10-17T05:29:59.255Z,34.47
2018-10-17T05:32:01.614Z,33.13
2018-10-17T05:34:04.428Z,33.70
2018-10-17T05:36:06.632Z,32.90
2018-10-17T05:38:08.827Z,34.67
2018-10-17T05:40:11.236Z,33.50
2018-10-17T05:42:13.524Z,32.93
2018-10-17T05:44:15.760Z,31.37
2018-10-17T05:46:19.910Z,33.40
2018-10-17T05:48:22.250Z,31.03
2018-10-17T05:50:24.576Z,32.70
2018-10-17T05:52:26.751Z,32.27
2018-10-17T05:54:28.953Z,31.70
2018-10-17T05:56:31.155Z,32.73
2018-10-17T05:58:33.355Z,31.80
2018-10-17T06:00:36.162Z,33.17
2018-10-17T06:02:38.459Z,31.00
2018-10-17T06:04:40.535Z,32.00
2018-10-17T06:06:42.730Z,31.20
2018-10-17T06:08:44.899Z,31.50
2018-10-17T06:10:47.144Z,29.93
2018-10-17T06:12:49.490Z,29.33
2018-10-17T06:14:51.673Z,31.90
2018-10-17T06:16:53.947Z,32.80
2018-10-17T06:18:57.037Z,38.70
2018-10-17T06:20:59.180Z,30.60
2018-10-17T06:23:01.390Z,30.43
2018-10-17T06:25:04.209Z,29.80
2018-10-17T06:27:06.359Z,28.23
2018-10-17T06:29:08.645Z,28.80
2018-10-17T06:31:10.842Z,29.80
2018-10-17T06:33:12.954Z,29.97
2018-10-17T06:35:15.249Z,31.73
2018-10-17T06:37:17.722Z,29.70
2018-10-17T06:39:19.790Z,29.93
2018-10-17T06:41:22.015Z,31.60
2018-10-17T06:43:25.375Z,30.00
2018-10-17T06:45:27.582Z,32.77
2018-10-17T06:47:29.754Z,31.70
2018-10-17T06:49:31.952Z,31.37
2018-10-17T06:51:34.154Z,34.17
2018-10-17T06:53:36.490Z,32.53
2018-10-17T06:55:38.868Z,33.37
2018-10-17T06:57:41.348Z,32.23
2018-10-17T06:59:43.716Z,32.63
2018-10-17T07:01:46.287Z,33.27
2018-10-17T07:03:48.600Z,32.43
2018-10-17T07:05:50.804Z,33.20
2018-10-17T07:07:53.890Z,33.10
2018-10-17T07:09:56.304Z,31.90
2018-10-17T07:11:58.662Z,33.53
2018-10-17T07:14:00.835Z,32.80
2018-10-17T07:16:03.011Z,32.97
2018-10-17T07:18:05.841Z,32.90
2018-10-17T07:20:08.467Z,32.37
2018-10-17T07:22:10.657Z,32.17
2018-10-17T07:24:12.867Z,31.20
2018-10-17T07:26:15.039Z,34.63
2018-10-17T07:28:17.252Z,34.60
2018-10-17T07:30:19.628Z,33.70
2018-10-17T07:32:21.835Z,33.60
2018-10-17T07:34:24.011Z,31.53
2018-10-17T07:36:26.223Z,31.90
2018-10-17T07:38:28.442Z,34.10
2018-10-17T07:40:30.628Z,33.50
2018-10-17T07:42:32.803Z,34.17
2018-10-17T07:44:34.968Z,34.10
2018-10-17T07:46:37.154Z,31.20
2018-10-17T07:48:39.338Z,31.47
2018-10-17T07:50:41.524Z,31.93
2018-10-17T07:52:43.727Z,32.53
2018-10-17T07:54:45.908Z,31.80
2018-10-17T07:56:48.514Z,31.33
2018-10-17T07:58:50.707Z,30.50
2018-10-17T08:00:52.930Z,32.23
2018-10-17T08:02:55.091Z,32.20
2018-10-17T08:04:57.279Z,35.83
2018-10-17T08:06:59.474Z,33.67
2018-10-17T08:09:01.816Z,30.20
2018-10-17T08:11:04.087Z,32.43
2018-10-17T08:13:06.492Z,31.77
2018-10-17T08:15:09.239Z,33.13
2018-10-17T08:17:11.927Z,33.97
2018-10-17T08:19:14.200Z,32.90
2018-10-17T08:21:16.404Z,34.73
2018-10-17T08:23:18.570Z,34.30
2018-10-17T08:25:20.798Z,33.40
2018-10-17T08:27:23.001Z,33.20
2018-10-17T08:29:25.194Z,32.53
2018-10-17T08:31:27.399Z,33.23
2018-10-17T08:33:29.562Z,34.50
2018-10-17T08:35:32.420Z,34.00
2018-10-17T08:37:34.747Z,31.50
2018-10-17T08:39:36.589Z,33.47
2018-10-17T08:41:39.248Z,34.00
2018-10-17T08:43:41.414Z,32.40
2018-10-17T08:45:43.580Z,32.33
2018-10-17T08:47:46.411Z,34.10
2018-10-17T08:49:48.590Z,32.33
2018-10-17T08:51:50.792Z,32.03
2018-10-17T08:53:52.974Z,31.47
2018-10-17T08:55:55.186Z,33.50
2018-10-17T08:57:57.428Z,31.60
2018-10-17T08:59:59.729Z,31.50
2018-10-17T09:02:02.005Z,31.73
2018-10-17T09:04:05.264Z,33.40
2018-10-17T09:06:07.489Z,32.03
2018-10-17T09:08:09.674Z,32.10
2018-10-17T09:10:11.896Z,31.83
2018-10-17T09:12:14.175Z,29.77
2018-10-17T09:14:16.288Z,31.50
2018-10-17T09:16:19.003Z,30.70
2018-10-17T09:18:21.171Z,30.10
2018-10-17T09:20:23.423Z,28.23
2018-10-17T09:22:25.741Z,27.30
2018-10-17T09:24:28.622Z,28.90
2018-10-17T09:26:30.790Z,28.03
2018-10-17T09:28:33.189Z,25.40
2018-10-17T09:30:35.399Z,25.10
2018-10-17T09:32:37.549Z,24.77
2018-10-17T09:34:39.713Z,24.60
2018-10-17T09:36:41.895Z,23.70
2018-10-17T09:38:44.038Z,22.67
2018-10-17T09:40:46.174Z,22.60
2018-10-17T09:42:48.322Z,23.20
2018-10-17T09:44:50.499Z,22.10
2018-10-17T09:46:52.639Z,20.10
2018-10-17T09:48:54.763Z,21.03
2018-10-17T09:50:56.914Z,19.93
2018-10-17T09:55:08.451Z,19.07
2018-10-17T09:57:10.602Z,16.63
2018-10-17T09:59:12.765Z,17.43
2018-10-17T10:01:20.515Z,16.20
2018-10-17T10:03:22.638Z,15.30
2018-10-17T10:05:24.782Z,15.57
2018-10-17T10:07:26.952Z,15.10
2018-10-17T10:09:29.104Z,14.27
2018-10-17T10:11:31.843Z,14.33
2018-10-17T10:13:34.008Z,14.50
2018-10-17T10:15:36.119Z,13.93
2018-10-17T10:17:38.392Z,15.13
2018-10-17T10:19:40.414Z,13.13
2018-10-17T10:21:42.529Z,14.13
2018-10-17T10:23:44.798Z,15.67
2018-10-17T10:25:46.840Z,11.97
2018-10-17T10:27:48.982Z,12.30
2018-10-17T10:29:51.880Z,12.80
2018-10-17T10:31:53.959Z,12.50
2018-10-17T10:33:56.214Z,12.63
2018-10-17T10:35:58.378Z,12.27
2018-10-17T10:38:00.490Z,11.67
2018-10-17T10:40:02.664Z,12.73
2018-10-17T10:42:05.191Z,12.30
2018-10-17T10:44:07.348Z,12.87
2018-10-17T10:46:09.438Z,12.23
2018-10-17T10:48:11.632Z,11.47
2018-10-17T10:50:14.227Z,12.50
2018-10-17T10:52:16.091Z,10.87
2018-10-17T10:54:18.394Z,11.83
2018-10-17T10:56:20.507Z,11.13
2018-10-17T10:58:22.873Z,10.60
2018-10-17T11:00:24.922Z,12.20
2018-10-17T11:02:27.064Z,11.13
2018-10-17T11:04:29.258Z,10.50
2018-10-17T11:06:31.588Z,11.27
2018-10-17T11:08:33.726Z,10.83
2018-10-17T11:10:35.850Z,10.20
2018-10-17T11:12:38.043Z,10.57
2018-10-17T11:14:40.248Z,10.00
2018-10-17T11:16:42.264Z,10.77
2018-10-17T11:18:44.411Z,11.00
2018-10-17T11:20:46.538Z,10.73
2018-10-17T11:22:48.680Z,11.23
2018-10-17T11:24:51.010Z,9.73
2018-10-17T11:26:53.168Z,9.70
2018-10-17T11:28:55.342Z,10.37
2018-10-17T11:30:57.423Z,9.50
2018-10-17T11:32:59.577Z,10.50
2018-10-17T11:35:01.778Z,9.57
2018-10-17T11:37:05.095Z,9.93
2018-10-17T11:39:08.023Z,10.40
2018-10-17T11:41:16.878Z,8.87
2018-10-17T11:43:18.963Z,9.90
2018-10-17T11:45:21.130Z,10.53
2018-10-17T11:47:23.250Z,11.10
2018-10-17T11:49:25.396Z,9.40
2018-10-17T11:51:27.557Z,9.90
2018-10-17T11:53:29.709Z,8.83
2018-10-17T11:55:31.874Z,8.93
2018-10-17T11:57:34.298Z,9.33
2018-10-17T11:59:36.493Z,9.80
2018-10-17T12:01:38.646Z,9.30
2018-10-17T12:03:40.897Z,8.90
2018-10-17T12:05:43.040Z,9.60
2018-10-17T12:07:45.092Z,9.57
2018-10-17T12:09:47.204Z,8.80
2018-10-17T12:11:49.466Z,8.30
2018-10-17T12:13:51.483Z,8.30
2018-10-17T12:15:53.975Z,9.03
2018-10-17T12:17:56.199Z,8.80
2018-10-17T12:19:58.443Z,9.30
2018-10-17T12:22:00.511Z,8.83
2018-10-17T12:24:02.724Z,9.13
2018-10-17T12:26:04.873Z,8.90
2018-10-17T12:28:07.172Z,8.80
2018-10-17T12:30:11.386Z,8.80
2018-10-17T12:32:13.521Z,9.10
2018-10-17T12:34:15.903Z,8.70
2018-10-17T12:36:18.048Z,9.23
2018-10-17T12:38:20.198Z,9.50
2018-10-17T12:40:22.514Z,9.40
2018-10-17T12:42:24.596Z,9.10
2018-10-17T12:44:26.742Z,8.70
2018-10-17T12:46:28.912Z,9.00
2018-10-17T12:48:31.055Z,9.13
2018-10-17T12:50:33.446Z,9.30
2018-10-17T12:52:35.651Z,9.90
2018-10-17T12:54:37.754Z,9.80
2018-10-17T12:56:39.973Z,10.33
2018-10-17T12:58:45.274Z,9.33
2018-10-17T13:00:47.425Z,9.47
2018-10-17T13:02:49.574Z,9.63
2018-10-17T13:04:51.734Z,9.27
2018-10-17T13:06:53.897Z,9.60
2018-10-17T13:08:56.102Z,10.07
2018-10-17T13:10:58.360Z,10.60
2018-10-17T13:13:00.989Z,9.67
2018-10-17T13:15:04.460Z,10.60
2018-10-17T13:17:06.573Z,12.70
2018-10-17T13:19:08.770Z,10.13
2018-10-17T13:21:11.194Z,10.97
2018-10-17T13:23:13.381Z,10.40
2018-10-17T13:25:15.607Z,9.80
2018-10-17T13:27:18.067Z,9.90
2018-10-17T13:29:20.278Z,9.60
2018-10-17T13:31:22.507Z,10.10
2018-10-17T13:33:24.735Z,10.60
2018-10-17T13:35:26.862Z,11.03
2018-10-17T13:37:29.058Z,9.70
2018-10-17T13:39:31.250Z,9.30
2018-10-17T13:41:33.477Z,10.13
2018-10-17T13:43:35.731Z,10.47
2018-10-17T13:45:38.277Z,9.30
2018-10-17T13:47:40.450Z,10.00
2018-10-17T13:49:42.759Z,9.57
2018-10-17T13:51:44.893Z,10.03
2018-10-17T13:53:47.051Z,10.10
2018-10-17T13:55:49.209Z,10.73
2018-10-17T13:57:51.534Z,11.77
2018-10-17T13:59:54.634Z,10.10
2018-10-17T14:01:57.151Z,10.80
2018-10-17T14:03:59.367Z,9.93
2018-10-17T14:06:01.951Z,10.70
2018-10-17T14:08:04.103Z,10.30
2018-10-17T14:10:06.355Z,9.60
2018-10-17T14:12:08.726Z,10.40
2018-10-17T14:14:10.774Z,9.90
2018-10-17T14:16:12.983Z,10.10
2018-10-17T14:18:15.213Z,9.67
2018-10-17T14:20:17.396Z,10.23
2018-10-17T14:22:19.560Z,10.33
2018-10-17T14:24:21.696Z,9.60
2018-10-17T14:26:24.035Z,10.23
2018-10-17T14:28:26.233Z,9.23
2018-10-17T14:30:28.576Z,10.17
2018-10-17T14:32:30.773Z,10.13
2018-10-17T14:34:33.255Z,10.07
2018-10-17T14:36:35.675Z,9.50
2018-10-17T14:38:37.870Z,9.60
2018-10-17T14:40:40.118Z,11.20
2018-10-17T14:42:42.471Z,10.50
2018-10-17T14:44:44.622Z,10.33
2018-10-17T14:46:46.748Z,10.80
2018-10-17T14:48:48.915Z,10.10
2018-10-17T14:50:51.054Z,9.93
2018-10-17T14:52:53.208Z,10.53
2018-10-17T14:54:55.285Z,10.60
2018-10-17T14:56:57.484Z,10.50
2018-10-17T14:59:00.262Z,10.30
2018-10-17T15:01:02.394Z,10.30
2018-10-17T15:03:04.602Z,9.77
2018-10-17T15:05:06.794Z,10.90
2018-10-17T15:07:08.927Z,10.80
2018-10-17T15:09:11.151Z,10.53
2018-10-17T15:11:13.641Z,10.53
2018-10-17T15:13:15.658Z,10.60
2018-10-17T15:15:17.965Z,11.60
2018-10-17T15:17:23.798Z,11.40
2018-10-17T15:19:25.995Z,10.47
2018-10-17T15:21:28.114Z,11.03
2018-10-17T15:23:30.622Z,10.20
2018-10-17T15:25:32.772Z,10.77
2018-10-17T15:27:34.906Z,10.90
2018-10-17T15:29:37.124Z,11.70
2018-10-17T15:31:39.293Z,12.40
2018-10-17T15:33:41.397Z,10.80
2018-10-17T15:35:43.547Z,10.90
2018-10-17T15:37:45.711Z,11.57
2018-10-17T15:39:47.871Z,10.77
2018-10-17T15:41:50.048Z,11.80
2018-10-17T15:43:52.319Z,10.83
2018-10-17T15:45:54.427Z,11.13
2018-10-17T15:47:56.591Z,10.53
2018-10-17T15:49:58.701Z,11.13
2018-10-17T15:52:00.870Z,10.63
2018-10-17T15:54:03.165Z,10.70
2018-10-17T15:56:05.297Z,11.20
2018-10-17T15:58:07.429Z,10.37
2018-10-17T16:00:10.435Z,10.63
2018-10-17T16:02:12.907Z,11.00
2018-10-17T16:04:14.951Z,10.10
2018-10-17T16:06:17.211Z,11.97
2018-10-17T16:08:20.095Z,10.00
2018-10-17T16:10:22.263Z,10.93
2018-10-17T16:12:24.390Z,10.90
2018-10-17T16:14:26.598Z,11.57
2018-10-17T16:16:28.711Z,12.50
2018-10-17T16:18:30.851Z,12.13
2018-10-17T16:20:39.138Z,12.83
2018-10-17T16:22:41.661Z,13.73
2018-10-17T16:24:43.746Z,12.17
2018-10-17T16:26:46.159Z,13.10
2018-10-17T16:28:48.347Z,12.47
2018-10-17T16:30:50.678Z,12.73
2018-10-17T16:32:52.744Z,43.27
2018-10-17T16:34:54.922Z,36.37
2018-10-17T16:37:15.463Z,51.70
2018-10-17T16:42:16.933Z,17.33
2018-10-17T16:44:19.222Z,54.33
2018-10-17T16:46:21.670Z,68.20
2018-10-17T16:48:23.854Z,43.57
2018-10-17T16:50:26.338Z,29.33
2018-10-17T16:52:28.463Z,24.33
2018-10-17T16:54:31.007Z,27.77
2018-10-17T16:56:33.491Z,24.00
2018-10-17T16:58:35.767Z,27.50
2018-10-17T17:00:37.922Z,17.67
2018-10-17T17:02:40.158Z,18.87
2018-10-17T17:04:42.321Z,16.43
2018-10-17T17:06:44.496Z,16.90
2018-10-17T17:08:46.798Z,19.20
2018-10-17T17:10:49.078Z,20.27
2018-10-17T17:12:51.255Z,20.33
2018-10-17T17:14:53.461Z,21.90
2018-10-17T17:16:55.628Z,23.60
2018-10-17T17:18:57.795Z,24.73
2018-10-17T17:21:00.031Z,24.40
2018-10-17T17:23:02.479Z,30.60
2018-10-17T17:25:05.184Z,26.23
2018-10-17T17:27:07.869Z,24.80
2018-10-17T17:29:10.024Z,28.30
2018-10-17T17:31:12.203Z,28.37
2018-10-17T17:33:14.593Z,29.13
2018-10-17T17:35:16.909Z,28.47
2018-10-17T17:37:19.759Z,27.50
2018-10-17T17:39:21.983Z,27.00
2018-10-17T17:41:24.274Z,25.97
2018-10-17T17:43:26.498Z,28.30
2018-10-17T17:45:29.029Z,41.43
2018-10-17T17:47:31.170Z,67.80
2018-10-17T17:49:33.494Z,47.77
2018-10-17T17:51:35.690Z,36.97
2018-10-17T17:53:38.059Z,35.40
2018-10-17T17:55:41.018Z,36.07
2018-10-17T17:57:43.231Z,36.60
2018-10-17T17:59:45.508Z,39.10
2018-10-17T18:01:47.725Z,37.63
2018-10-17T18:03:50.175Z,36.53
2018-10-17T18:05:52.406Z,38.70
2018-10-17T18:07:54.607Z,36.20
2018-10-17T18:09:57.147Z,36.73
2018-10-17T18:12:14.920Z,40.37
2018-10-17T18:14:21.345Z,42.37
2018-10-17T18:16:24.232Z,45.73
2018-10-17T18:18:26.641Z,45.27
2018-10-17T18:20:35.527Z,38.80
2018-10-17T18:22:38.079Z,67.40
2018-10-17T18:24:40.380Z,97.13
2018-10-17T18:26:42.628Z,58.27
2018-10-17T18:28:44.957Z,52.37
2018-10-17T18:30:47.332Z,59.27
2018-10-17T18:32:49.487Z,50.13
2018-10-17T18:34:51.703Z,50.70
2018-10-17T18:36:54.382Z,46.73
2018-10-17T18:38:57.133Z,44.10
2018-10-17T18:41:00.254Z,42.63
2018-10-17T18:43:03.164Z,42.57
2018-10-17T18:45:15.686Z,45.40
2018-10-17T18:47:18.391Z,43.43
2018-10-17T18:49:21.066Z,46.47
2018-10-17T18:51:24.564Z,44.23
2018-10-17T18:53:33.267Z,44.40
2018-10-17T18:55:38.575Z,47.00
2018-10-17T18:57:41.028Z,46.70
2018-10-17T18:59:43.606Z,48.17
2018-10-17T19:01:48.346Z,48.57
2018-10-17T19:03:50.747Z,47.57
2018-10-17T19:06:06.318Z,47.47
2018-10-17T19:08:22.070Z,46.03
2018-10-17T19:10:24.508Z,48.33
2018-10-17T19:12:28.039Z,51.47
2018-10-17T19:14:30.607Z,55.00
2018-10-17T19:16:33.087Z,51.10
2018-10-17T19:18:36.513Z,51.23
2018-10-17T19:20:38.836Z,51.83
2018-10-17T19:22:41.038Z,51.83
2018-10-17T19:24:47.029Z,53.67
2018-10-17T19:27:11.445Z,52.20
2018-10-17T19:29:14.396Z,52.97
2018-10-17T19:31:17.713Z,54.97
2018-10-17T19:33:44.042Z,56.37
2018-10-17T19:35:50.437Z,52.90
2018-10-17T19:38:35.881Z,55.27
2018-10-17T19:40:39.803Z,54.13
2018-10-17T19:42:42.333Z,52.80
2018-10-17T19:44:46.519Z,54.30
2018-10-17T19:46:48.712Z,51.60
2018-10-17T19:48:50.999Z,54.10
2018-10-17T19:50:53.630Z,52.23
2018-10-17T19:52:57.225Z,52.43
2018-10-17T19:55:01.236Z,62.70
2018-10-17T19:57:03.524Z,58.70
2018-10-17T19:59:06.467Z,54.20
2018-10-17T20:03:32.054Z,53.90
2018-10-17T20:05:40.988Z,54.53
2018-10-17T20:07:54.106Z,105.90
2018-10-17T20:09:56.367Z,89.57
2018-10-17T20:11:58.692Z,68.33
2018-10-17T20:14:00.944Z,58.07
2018-10-17T20:16:03.267Z,55.67
2018-10-17T20:18:07.337Z,55.23
2018-10-17T20:20:09.976Z,56.00
2018-10-17T20:22:13.051Z,57.20
2018-10-17T20:24:16.309Z,58.00
2018-10-17T20:26:19.011Z,60.53
2018-10-17T20:28:25.042Z,55.77
2018-10-17T20:30:36.540Z,55.67
2018-10-17T20:32:55.470Z,54.20
2018-10-17T20:34:58.629Z,53.57
2018-10-17T20:37:02.152Z,55.10
2018-10-17T20:39:09.212Z,53.00
2018-10-17T20:41:11.416Z,54.67
2018-10-17T20:43:13.700Z,54.10
2018-10-17T20:45:16.825Z,53.10
2018-10-17T20:47:19.901Z,55.33
2018-10-17T20:49:24.816Z,50.67
2018-10-17T20:51:28.055Z,54.33
2018-10-17T20:53:30.652Z,52.23
2018-10-17T21:08:42.276Z,50.40
2018-10-17T21:10:44.555Z,55.03
2018-10-17T21:12:46.908Z,54.37
2018-10-17T21:14:49.427Z,55.00
2018-10-17T21:16:58.727Z,58.70
2018-10-17T21:25:47.646Z,56.87
2018-10-17T21:27:49.784Z,55.97
2018-10-17T21:29:51.925Z,54.40
2018-10-17T21:31:54.113Z,56.13
2018-10-17T21:33:56.202Z,59.30
2018-10-17T21:35:58.327Z,54.63
2018-10-17T21:38:00.513Z,57.23
2018-10-17T21:40:02.726Z,54.43
2018-10-17T21:42:04.854Z,54.83
2018-10-17T21:44:08.146Z,53.60
2018-10-17T21:46:10.287Z,54.30
2018-10-17T21:48:12.450Z,51.93
2018-10-17T21:50:14.681Z,54.43
2018-10-17T21:52:16.751Z,49.50
2018-10-17T21:54:18.871Z,52.80
2018-10-17T21:56:20.986Z,53.80
2018-10-17T21:58:23.118Z,47.73
2018-10-17T22:00:25.370Z,47.80
2018-10-17T22:02:27.722Z,50.40
2018-10-17T22:04:29.875Z,47.60
2018-10-17T22:06:31.990Z,47.80
2018-10-17T22:08:34.134Z,49.80
2018-10-17T22:10:36.246Z,49.03
2018-10-17T22:12:38.453Z,47.87
2018-10-17T22:14:40.818Z,50.00
2018-10-17T22:16:48.629Z,46.30
2018-10-17T22:18:50.799Z,47.73
2018-10-17T22:20:52.906Z,47.53
2018-10-17T22:22:55.122Z,46.77
2018-10-17T22:24:57.254Z,46.07
2018-10-17T22:26:59.434Z,45.00
2018-10-17T22:29:01.591Z,48.80
2018-10-17T22:31:03.902Z,47.80
2018-10-17T22:33:06.044Z,47.47
2018-10-17T22:35:08.182Z,45.77
2018-10-17T22:37:10.295Z,47.27
2018-10-17T22:39:13.851Z,49.27
2018-10-17T22:41:16.013Z,47.37
2018-10-17T22:43:18.922Z,46.47
2018-10-17T22:45:21.091Z,45.07
2018-10-17T22:47:23.930Z,47.87
2018-10-17T22:49:26.081Z,45.97
2018-10-17T22:51:28.221Z,42.70
2018-10-17T22:53:30.340Z,44.60
2018-10-17T22:55:32.483Z,43.20
2018-10-17T22:57:34.791Z,41.77
2018-10-17T22:59:36.935Z,42.63
2018-10-17T23:01:39.093Z,44.20
2018-10-17T23:03:41.304Z,42.40
2018-10-17T23:05:43.423Z,40.57
2018-10-17T23:07:45.546Z,42.80
2018-10-17T23:09:47.701Z,42.70
2018-10-17T23:11:49.849Z,44.23
2018-10-17T23:13:51.994Z,40.83
2018-10-17T23:15:54.122Z,41.13
2018-10-17T23:17:56.299Z,41.30
2018-10-17T23:19:58.443Z,41.80
2018-10-17T23:22:00.907Z,42.40
2018-10-17T23:24:03.075Z,39.70
2018-10-17T23:26:05.653Z,43.37
2018-10-17T23:28:08.106Z,43.27
2018-10-17T23:30:10.342Z,41.97
2018-10-17T23:32:12.472Z,41.50
2018-10-17T23:34:14.666Z,45.87
2018-10-17T23:36:16.791Z,41.17
2018-10-17T23:38:18.944Z,42.33
2018-10-17T23:40:21.116Z,44.47
2018-10-17T23:42:23.248Z,43.43
2018-10-17T23:44:25.435Z,42.03
2018-10-17T23:46:28.415Z,43.03
2018-10-17T23:48:30.590Z,42.80
2018-10-17T23:50:32.704Z,43.47
2018-10-17T23:52:34.835Z,43.57
2018-10-17T23:54:36.966Z,44.67
2018-10-17T23:56:39.099Z,41.00
2018-10-17T23:58:41.410Z,44.00
